sensor_id;sensor_type;location;lat;lon;timestamp;temperature;humidity
21271;DHT22;10795;50.796;3.860;2023-02-28T00:01:31;1.70;99.90
21271;DHT22;10795;50.796;3.860;2023-02-28T00:03:59;1.50;99.90
21271;DHT22;10795;50.796;3.860;2023-02-28T00:06:27;2.50;99.90
21271;DHT22;10795;50.796;3.860;2023-02-28T00:08:53;2.70;99.90
21271;DHT22;10795;50.796;3.860;2023-02-28T00:11:27;2.80;99.90
21271;DHT22;10795;50.796;3.860;2023-02-28T00:13:53;2.90;99.90
21271;DHT22;10795;50.796;3.860;2023-02-28T00:16:23;3.10;99.90
21271;DHT22;10795;50.796;3.860;2023-02-28T00:18:49;2.90;99.90
21271;DHT22;10795;50.796;3.860;2023-02-28T00:21:22;3.20;99.90
21271;DHT22;10795;50.796;3.860;2023-02-28T00:24:03;3.00;99.90
21271;DHT22;10795;50.796;3.860;2023-02-28T00:26:39;2.40;99.90
21271;DHT22;10795;50.796;3.860;2023-02-28T00:29:08;2.40;99.90
21271;DHT22;10795;50.796;3.860;2023-02-28T00:31:36;2.80;99.90
21271;DHT22;10795;50.796;3.860;2023-02-28T00:34:10;2.90;99.90
21271;DHT22;10795;50.796;3.860;2023-02-28T00:36:38;2.90;99.90
21271;DHT22;10795;50.796;3.860;2023-02-28T00:39:14;2.80;99.90
21271;DHT22;10795;50.796;3.860;2023-02-28T00:41:44;2.70;99.90
21271;DHT22;10795;50.796;3.860;2023-02-28T00:44:15;2.70;99.90
21271;DHT22;10795;50.796;3.860;2023-02-28T00:46:46;3.00;99.90
21271;DHT22;10795;50.796;3.860;2023-02-28T00:49:27;2.60;99.90
21271;DHT22;10795;50.796;3.860;2023-02-28T00:51:54;2.70;99.90
21271;DHT22;10795;50.796;3.860;2023-02-28T00:54:21;2.40;99.90
21271;DHT22;10795;50.796;3.860;2023-02-28T00:56:50;2.10;99.90
21271;DHT22;10795;50.796;3.860;2023-02-28T00:59:17;2.00;99.90
21271;DHT22;10795;50.796;3.860;2023-02-28T01:01:46;2.00;99.90
21271;DHT22;10795;50.796;3.860;2023-02-28T01:04:19;1.80;99.90
21271;DHT22;10795;50.796;3.860;2023-02-28T01:06:50;1.90;99.90
21271;DHT22;10795;50.796;3.860;2023-02-28T01:09:33;2.50;99.90
21271;DHT22;10795;50.796;3.860;2023-02-28T01:11:59;2.00;99.90
21271;DHT22;10795;50.796;3.860;2023-02-28T01:14:36;2.00;99.90
21271;DHT22;10795;50.796;3.860;2023-02-28T01:17:03;1.80;99.90
21271;DHT22;10795;50.796;3.860;2023-02-28T01:19:44;1.70;99.90
21271;DHT22;10795;50.796;3.860;2023-02-28T01:22:15;1.80;99.90
21271;DHT22;10795;50.796;3.860;2023-02-28T01:24:58;1.90;99.90
21271;DHT22;10795;50.796;3.860;2023-02-28T01:27:24;2.60;99.90
21271;DHT22;10795;50.796;3.860;2023-02-28T01:30:00;2.60;99.90
21271;DHT22;10795;50.796;3.860;2023-02-28T01:32:26;2.60;99.90
21271;DHT22;10795;50.796;3.860;2023-02-28T01:35:02;2.80;99.90
21271;DHT22;10795;50.796;3.860;2023-02-28T01:37:31;3.00;99.90
21271;DHT22;10795;50.796;3.860;2023-02-28T01:39:59;3.10;99.90
21271;DHT22;10795;50.796;3.860;2023-02-28T01:42:32;3.20;99.90
21271;DHT22;10795;50.796;3.860;2023-02-28T01:45:26;3.20;99.90
21271;DHT22;10795;50.796;3.860;2023-02-28T01:48:07;3.00;99.90
21271;DHT22;10795;50.796;3.860;2023-02-28T01:50:41;3.10;99.90
21271;DHT22;10795;50.796;3.860;2023-02-28T01:53:15;3.00;99.90
21271;DHT22;10795;50.796;3.860;2023-02-28T01:55:46;3.00;99.90
21271;DHT22;10795;50.796;3.860;2023-02-28T01:58:13;3.00;99.90
21271;DHT22;10795;50.796;3.860;2023-02-28T02:00:41;2.80;99.90
21271;DHT22;10795;50.796;3.860;2023-02-28T02:03:12;2.90;99.90
21271;DHT22;10795;50.796;3.860;2023-02-28T02:05:41;2.80;99.90
21271;DHT22;10795;50.796;3.860;2023-02-28T02:08:12;2.80;99.90
21271;DHT22;10795;50.796;3.860;2023-02-28T02:11:00;2.90;99.90
21271;DHT22;10795;50.796;3.860;2023-02-28T02:25:32;2.80;99.90
21271;DHT22;10795;50.796;3.860;2023-02-28T02:45:16;2.90;99.90
21271;DHT22;10795;50.796;3.860;2023-02-28T02:47:43;2.80;99.90
21271;DHT22;10795;50.796;3.860;2023-02-28T02:50:30;2.70;99.90
21271;DHT22;10795;50.796;3.860;2023-02-28T02:53:04;2.80;99.90
21271;DHT22;10795;50.796;3.860;2023-02-28T02:55:37;2.50;99.90
21271;DHT22;10795;50.796;3.860;2023-02-28T02:58:16;2.70;99.90
21271;DHT22;10795;50.796;3.860;2023-02-28T03:00:57;2.70;99.90
21271;DHT22;10795;50.796;3.860;2023-02-28T03:03:27;2.40;99.90
21271;DHT22;10795;50.796;3.860;2023-02-28T03:06:12;2.40;99.90
21271;DHT22;10795;50.796;3.860;2023-02-28T03:08:40;2.40;99.90
21271;DHT22;10795;50.796;3.860;2023-02-28T03:11:17;2.60;99.90
21271;DHT22;10795;50.796;3.860;2023-02-28T03:14:09;2.50;99.90
21271;DHT22;10795;50.796;3.860;2023-02-28T03:22:40;2.60;99.90
21271;DHT22;10795;50.796;3.860;2023-02-28T03:25:29;2.60;99.90
21271;DHT22;10795;50.796;3.860;2023-02-28T03:28:30;2.60;99.90
21271;DHT22;10795;50.796;3.860;2023-02-28T03:31:38;2.50;99.90
21271;DHT22;10795;50.796;3.860;2023-02-28T03:34:11;2.20;99.90
21271;DHT22;10795;50.796;3.860;2023-02-28T03:36:41;2.30;99.90
21271;DHT22;10795;50.796;3.860;2023-02-28T03:39:17;2.40;99.90
21271;DHT22;10795;50.796;3.860;2023-02-28T03:42:09;2.30;99.90
21271;DHT22;10795;50.796;3.860;2023-02-28T03:44:49;2.40;99.90
21271;DHT22;10795;50.796;3.860;2023-02-28T03:47:22;2.50;99.90
21271;DHT22;10795;50.796;3.860;2023-02-28T03:50:11;2.30;99.90
21271;DHT22;10795;50.796;3.860;2023-02-28T03:53:04;2.40;99.90
21271;DHT22;10795;50.796;3.860;2023-02-28T03:55:52;2.40;99.90
21271;DHT22;10795;50.796;3.860;2023-02-28T04:01:38;2.50;99.90
21271;DHT22;10795;50.796;3.860;2023-02-28T04:04:07;2.50;99.90
21271;DHT22;10795;50.796;3.860;2023-02-28T04:06:38;2.60;99.90
21271;DHT22;10795;50.796;3.860;2023-02-28T04:09:16;2.50;99.90
21271;DHT22;10795;50.796;3.860;2023-02-28T04:11:57;2.70;99.90
21271;DHT22;10795;50.796;3.860;2023-02-28T04:14:42;2.60;99.90
21271;DHT22;10795;50.796;3.860;2023-02-28T04:17:17;2.20;99.90
21271;DHT22;10795;50.796;3.860;2023-02-28T04:19:55;2.30;99.90
21271;DHT22;10795;50.796;3.860;2023-02-28T04:22:26;2.30;99.90
21271;DHT22;10795;50.796;3.860;2023-02-28T04:25:02;2.40;99.90
21271;DHT22;10795;50.796;3.860;2023-02-28T04:27:38;2.30;99.90
21271;DHT22;10795;50.796;3.860;2023-02-28T04:30:43;2.50;99.90
21271;DHT22;10795;50.796;3.860;2023-02-28T04:33:22;2.50;99.90
21271;DHT22;10795;50.796;3.860;2023-02-28T04:36:21;2.60;99.90
21271;DHT22;10795;50.796;3.860;2023-02-28T04:38:52;2.60;99.90
21271;DHT22;10795;50.796;3.860;2023-02-28T04:41:24;2.60;99.90
21271;DHT22;10795;50.796;3.860;2023-02-28T04:44:18;2.70;99.90
21271;DHT22;10795;50.796;3.860;2023-02-28T04:47:03;2.70;99.90
21271;DHT22;10795;50.796;3.860;2023-02-28T04:49:36;2.00;99.90
21271;DHT22;10795;50.796;3.860;2023-02-28T04:52:04;1.60;99.90
21271;DHT22;10795;50.796;3.860;2023-02-28T04:54:35;1.30;99.90
21271;DHT22;10795;50.796;3.860;2023-02-28T04:57:13;0.90;99.90
21271;DHT22;10795;50.796;3.860;2023-02-28T04:59:45;0.60;99.90
21271;DHT22;10795;50.796;3.860;2023-02-28T05:02:19;0.30;99.90
21271;DHT22;10795;50.796;3.860;2023-02-28T05:04:54;0.40;99.90
21271;DHT22;10795;50.796;3.860;2023-02-28T05:07:28;0.30;99.90
21271;DHT22;10795;50.796;3.860;2023-02-28T05:10:16;1.20;99.90
21271;DHT22;10795;50.796;3.860;2023-02-28T05:12:47;1.30;99.90
21271;DHT22;10795;50.796;3.860;2023-02-28T05:15:34;1.00;99.90
21271;DHT22;10795;50.796;3.860;2023-02-28T05:18:20;0.80;99.90
21271;DHT22;10795;50.796;3.860;2023-02-28T05:21:14;0.80;99.90
21271;DHT22;10795;50.796;3.860;2023-02-28T05:24:10;0.90;99.90
21271;DHT22;10795;50.796;3.860;2023-02-28T05:27:04;1.50;99.90
21271;DHT22;10795;50.796;3.860;2023-02-28T05:29:43;1.70;99.90
21271;DHT22;10795;50.796;3.860;2023-02-28T05:32:34;1.80;99.90
21271;DHT22;10795;50.796;3.860;2023-02-28T05:35:41;2.20;99.90
21271;DHT22;10795;50.796;3.860;2023-02-28T05:38:37;2.20;99.90
21271;DHT22;10795;50.796;3.860;2023-02-28T05:41:51;2.30;99.90
21271;DHT22;10795;50.796;3.860;2023-02-28T05:44:44;2.30;99.90
21271;DHT22;10795;50.796;3.860;2023-02-28T05:50:56;2.20;99.90
21271;DHT22;10795;50.796;3.860;2023-02-28T05:53:44;2.30;99.90
21271;DHT22;10795;50.796;3.860;2023-02-28T05:56:53;2.30;99.90
21271;DHT22;10795;50.796;3.860;2023-02-28T05:59:29;2.40;99.90
21271;DHT22;10795;50.796;3.860;2023-02-28T06:02:38;2.40;99.90
21271;DHT22;10795;50.796;3.860;2023-02-28T06:06:01;2.40;99.90
21271;DHT22;10795;50.796;3.860;2023-02-28T06:09:09;2.40;99.90
21271;DHT22;10795;50.796;3.860;2023-02-28T06:12:12;2.40;99.90
21271;DHT22;10795;50.796;3.860;2023-02-28T06:15:01;2.30;99.90
21271;DHT22;10795;50.796;3.860;2023-02-28T06:18:04;2.30;99.90
21271;DHT22;10795;50.796;3.860;2023-02-28T06:21:06;2.30;99.90
21271;DHT22;10795;50.796;3.860;2023-02-28T06:24:21;2.50;99.90
21271;DHT22;10795;50.796;3.860;2023-02-28T06:27:33;2.50;99.90
21271;DHT22;10795;50.796;3.860;2023-02-28T06:30:14;2.50;99.90
21271;DHT22;10795;50.796;3.860;2023-02-28T06:32:58;2.30;99.90
21271;DHT22;10795;50.796;3.860;2023-02-28T06:39:05;2.50;99.90
21271;DHT22;10795;50.796;3.860;2023-02-28T07:01:40;2.40;99.90
21271;DHT22;10795;50.796;3.860;2023-02-28T07:04:55;2.60;99.90
21271;DHT22;10795;50.796;3.860;2023-02-28T07:48:44;2.90;99.90
21271;DHT22;10795;50.796;3.860;2023-02-28T07:51:23;3.00;99.90
21271;DHT22;10795;50.796;3.860;2023-02-28T07:53:49;3.00;99.90
21271;DHT22;10795;50.796;3.860;2023-02-28T07:56:15;3.20;99.90
21271;DHT22;10795;50.796;3.860;2023-02-28T07:58:40;3.30;99.90
21271;DHT22;10795;50.796;3.860;2023-02-28T08:01:08;3.20;99.90
21271;DHT22;10795;50.796;3.860;2023-02-28T08:03:34;3.30;99.90
21271;DHT22;10795;50.796;3.860;2023-02-28T08:06:02;3.30;99.90
21271;DHT22;10795;50.796;3.860;2023-02-28T08:08:30;3.20;99.90
21271;DHT22;10795;50.796;3.860;2023-02-28T08:11:01;3.30;99.90
21271;DHT22;10795;50.796;3.860;2023-02-28T08:13:28;3.40;99.90
21271;DHT22;10795;50.796;3.860;2023-02-28T08:15:55;3.50;99.90
21271;DHT22;10795;50.796;3.860;2023-02-28T08:18:23;3.50;99.90
21271;DHT22;10795;50.796;3.860;2023-02-28T08:20:49;3.60;99.90
21271;DHT22;10795;50.796;3.860;2023-02-28T08:23:15;3.70;99.90
21271;DHT22;10795;50.796;3.860;2023-02-28T08:25:41;3.70;99.90
21271;DHT22;10795;50.796;3.860;2023-02-28T08:28:07;3.80;99.90
21271;DHT22;10795;50.796;3.860;2023-02-28T08:30:33;3.80;99.90
21271;DHT22;10795;50.796;3.860;2023-02-28T08:32:58;3.70;99.90
21271;DHT22;10795;50.796;3.860;2023-02-28T08:35:24;3.70;99.90
21271;DHT22;10795;50.796;3.860;2023-02-28T08:37:52;3.70;99.90
21271;DHT22;10795;50.796;3.860;2023-02-28T08:40:18;3.80;99.90
21271;DHT22;10795;50.796;3.860;2023-02-28T08:42:45;3.90;99.90
21271;DHT22;10795;50.796;3.860;2023-02-28T08:45:12;4.00;99.90
21271;DHT22;10795;50.796;3.860;2023-02-28T08:47:39;4.00;99.90
21271;DHT22;10795;50.796;3.860;2023-02-28T08:50:07;4.10;99.90
21271;DHT22;10795;50.796;3.860;2023-02-28T08:52:33;4.20;99.90
21271;DHT22;10795;50.796;3.860;2023-02-28T08:55:01;4.20;99.90
21271;DHT22;10795;50.796;3.860;2023-02-28T08:57:27;4.20;99.90
21271;DHT22;10795;50.796;3.860;2023-02-28T08:59:53;4.20;99.90
21271;DHT22;10795;50.796;3.860;2023-02-28T09:02:19;4.40;99.90
21271;DHT22;10795;50.796;3.860;2023-02-28T09:04:45;4.40;99.90
21271;DHT22;10795;50.796;3.860;2023-02-28T09:07:11;4.40;99.90
21271;DHT22;10795;50.796;3.860;2023-02-28T09:09:37;4.30;99.90
21271;DHT22;10795;50.796;3.860;2023-02-28T09:12:10;4.30;99.90
21271;DHT22;10795;50.796;3.860;2023-02-28T09:14:36;4.40;99.90
21271;DHT22;10795;50.796;3.860;2023-02-28T09:17:05;4.30;99.90
21271;DHT22;10795;50.796;3.860;2023-02-28T09:19:31;4.40;99.90
21271;DHT22;10795;50.796;3.860;2023-02-28T09:21:57;4.50;99.90
21271;DHT22;10795;50.796;3.860;2023-02-28T09:24:22;4.50;99.90
21271;DHT22;10795;50.796;3.860;2023-02-28T09:26:51;4.40;99.90
21271;DHT22;10795;50.796;3.860;2023-02-28T09:29:17;4.50;99.90
21271;DHT22;10795;50.796;3.860;2023-02-28T09:31:43;4.60;99.90
21271;DHT22;10795;50.796;3.860;2023-02-28T09:34:09;4.60;99.90
21271;DHT22;10795;50.796;3.860;2023-02-28T09:36:35;4.70;99.90
21271;DHT22;10795;50.796;3.860;2023-02-28T09:39:02;4.80;99.90
21271;DHT22;10795;50.796;3.860;2023-02-28T09:41:36;4.80;99.90
21271;DHT22;10795;50.796;3.860;2023-02-28T09:44:07;4.90;99.90
21271;DHT22;10795;50.796;3.860;2023-02-28T09:46:44;4.90;99.90
21271;DHT22;10795;50.796;3.860;2023-02-28T09:49:24;5.00;99.90
21271;DHT22;10795;50.796;3.860;2023-02-28T09:52:09;5.20;99.90
21271;DHT22;10795;50.796;3.860;2023-02-28T09:54:35;5.20;99.90
21271;DHT22;10795;50.796;3.860;2023-02-28T10:04:56;5.50;99.90
21271;DHT22;10795;50.796;3.860;2023-02-28T10:10:36;6.00;99.90
21271;DHT22;10795;50.796;3.860;2023-02-28T10:15:41;6.40;99.90
21271;DHT22;10795;50.796;3.860;2023-02-28T10:18:12;6.60;99.90
21271;DHT22;10795;50.796;3.860;2023-02-28T10:20:43;6.60;99.90
21271;DHT22;10795;50.796;3.860;2023-02-28T10:23:21;7.00;99.90
21271;DHT22;10795;50.796;3.860;2023-02-28T10:26:10;6.90;99.90
21271;DHT22;10795;50.796;3.860;2023-02-28T10:28:37;7.20;99.90
21271;DHT22;10795;50.796;3.860;2023-02-28T10:31:03;7.30;99.90
21271;DHT22;10795;50.796;3.860;2023-02-28T10:33:32;7.80;99.90
21271;DHT22;10795;50.796;3.860;2023-02-28T10:36:01;7.90;99.90
21271;DHT22;10795;50.796;3.860;2023-02-28T10:38:36;7.80;99.90
21271;DHT22;10795;50.796;3.860;2023-02-28T10:41:08;7.80;99.90
21271;DHT22;10795;50.796;3.860;2023-02-28T10:43:34;8.00;99.90
21271;DHT22;10795;50.796;3.860;2023-02-28T10:46:04;8.20;99.90
21271;DHT22;10795;50.796;3.860;2023-02-28T10:48:47;8.30;99.90
21271;DHT22;10795;50.796;3.860;2023-02-28T10:51:18;8.30;99.90
21271;DHT22;10795;50.796;3.860;2023-02-28T10:53:52;8.50;99.90
21271;DHT22;10795;50.796;3.860;2023-02-28T10:56:22;8.40;99.90
21271;DHT22;10795;50.796;3.860;2023-02-28T10:59:22;8.40;99.90
21271;DHT22;10795;50.796;3.860;2023-02-28T11:01:49;8.60;99.90
21271;DHT22;10795;50.796;3.860;2023-02-28T11:07:16;8.60;99.90
21271;DHT22;10795;50.796;3.860;2023-02-28T11:09:45;8.70;99.90
21271;DHT22;10795;50.796;3.860;2023-02-28T11:15:02;9.10;99.90
21271;DHT22;10795;50.796;3.860;2023-02-28T11:17:30;8.90;99.90
21271;DHT22;10795;50.796;3.860;2023-02-28T11:19:59;9.20;99.90
21271;DHT22;10795;50.796;3.860;2023-02-28T11:22:31;9.30;99.90
21271;DHT22;10795;50.796;3.860;2023-02-28T11:25:01;9.00;99.90
21271;DHT22;10795;50.796;3.860;2023-02-28T11:29:57;9.30;99.90
21271;DHT22;10795;50.796;3.860;2023-02-28T11:32:25;9.10;99.90
21271;DHT22;10795;50.796;3.860;2023-02-28T11:35:26;9.30;99.90
21271;DHT22;10795;50.796;3.860;2023-02-28T11:37:58;9.00;99.90
21271;DHT22;10795;50.796;3.860;2023-02-28T11:46:29;9.60;99.90
21271;DHT22;10795;50.796;3.860;2023-02-28T11:49:25;9.60;99.90
21271;DHT22;10795;50.796;3.860;2023-02-28T11:57:51;9.90;99.90
21271;DHT22;10795;50.796;3.860;2023-02-28T12:00:38;9.80;99.90
21271;DHT22;10795;50.796;3.860;2023-02-28T12:06:25;10.00;99.90
21271;DHT22;10795;50.796;3.860;2023-02-28T12:20:13;10.40;99.90
21271;DHT22;10795;50.796;3.860;2023-02-28T12:22:55;10.00;99.90
21271;DHT22;10795;50.796;3.860;2023-02-28T12:28:26;10.10;99.90
21271;DHT22;10795;50.796;3.860;2023-02-28T12:30:59;10.40;99.90
21271;DHT22;10795;50.796;3.860;2023-02-28T12:33:31;10.30;99.90
21271;DHT22;10795;50.796;3.860;2023-02-28T12:36:03;10.30;99.90
21271;DHT22;10795;50.796;3.860;2023-02-28T12:38:44;10.30;99.90
21271;DHT22;10795;50.796;3.860;2023-02-28T12:41:14;10.20;99.90
21271;DHT22;10795;50.796;3.860;2023-02-28T12:43:51;10.20;99.90
21271;DHT22;10795;50.796;3.860;2023-02-28T12:46:32;10.40;99.90
21271;DHT22;10795;50.796;3.860;2023-02-28T12:49:02;10.10;99.90
21271;DHT22;10795;50.796;3.860;2023-02-28T12:51:30;10.40;99.90
21271;DHT22;10795;50.796;3.860;2023-02-28T12:59:18;10.50;99.90
21271;DHT22;10795;50.796;3.860;2023-02-28T13:02:00;10.20;99.90
21271;DHT22;10795;50.796;3.860;2023-02-28T13:10:21;10.10;99.90
21271;DHT22;10795;50.796;3.860;2023-02-28T13:12:53;10.30;99.90
21271;DHT22;10795;50.796;3.860;2023-02-28T13:15:26;10.50;99.90
21271;DHT22;10795;50.796;3.860;2023-02-28T13:17:59;10.40;99.90
21271;DHT22;10795;50.796;3.860;2023-02-28T13:20:36;10.70;99.90
21271;DHT22;10795;50.796;3.860;2023-02-28T13:23:03;10.70;99.90
21271;DHT22;10795;50.796;3.860;2023-02-28T13:28:01;10.50;99.90
21271;DHT22;10795;50.796;3.860;2023-02-28T13:33:33;10.60;99.90
21271;DHT22;10795;50.796;3.860;2023-02-28T13:44:01;10.20;99.90
21271;DHT22;10795;50.796;3.860;2023-02-28T13:46:28;10.20;99.90
21271;DHT22;10795;50.796;3.860;2023-02-28T13:48:54;10.00;99.90
21271;DHT22;10795;50.796;3.860;2023-02-28T13:51:47;10.30;99.90
21271;DHT22;10795;50.796;3.860;2023-02-28T14:05:29;9.90;99.90
21271;DHT22;10795;50.796;3.860;2023-02-28T14:07:58;9.90;99.90
21271;DHT22;10795;50.796;3.860;2023-02-28T14:10:30;9.40;99.90
21271;DHT22;10795;50.796;3.860;2023-02-28T14:13:01;9.80;99.90
21271;DHT22;10795;50.796;3.860;2023-02-28T14:18:35;9.80;99.90
21271;DHT22;10795;50.796;3.860;2023-02-28T14:21:14;9.80;99.90
21271;DHT22;10795;50.796;3.860;2023-02-28T14:26:44;9.70;99.90
21271;DHT22;10795;50.796;3.860;2023-02-28T14:35:22;10.00;99.90
21271;DHT22;10795;50.796;3.860;2023-02-28T14:37:53;9.80;99.90
21271;DHT22;10795;50.796;3.860;2023-02-28T14:40:32;9.50;99.90
21271;DHT22;10795;50.796;3.860;2023-02-28T14:43:03;9.50;99.90
21271;DHT22;10795;50.796;3.860;2023-02-28T14:45:33;9.40;99.90
21271;DHT22;10795;50.796;3.860;2023-02-28T14:48:01;9.00;99.90
21271;DHT22;10795;50.796;3.860;2023-02-28T14:50:35;9.20;99.90
21271;DHT22;10795;50.796;3.860;2023-02-28T14:53:02;9.20;99.90
21271;DHT22;10795;50.796;3.860;2023-02-28T14:55:43;9.20;99.90
21271;DHT22;10795;50.796;3.860;2023-02-28T14:58:30;9.10;99.90
21271;DHT22;10795;50.796;3.860;2023-02-28T15:00:59;9.10;99.90
21271;DHT22;10795;50.796;3.860;2023-02-28T15:03:32;8.90;99.90
21271;DHT22;10795;50.796;3.860;2023-02-28T15:06:01;8.90;99.90
21271;DHT22;10795;50.796;3.860;2023-02-28T15:08:28;8.80;99.90
21271;DHT22;10795;50.796;3.860;2023-02-28T15:16:14;8.60;99.90
21271;DHT22;10795;50.796;3.860;2023-02-28T15:18:54;8.50;99.90
21271;DHT22;10795;50.796;3.860;2023-02-28T15:21:29;8.50;99.90
21271;DHT22;10795;50.796;3.860;2023-02-28T15:24:17;8.50;99.90
21271;DHT22;10795;50.796;3.860;2023-02-28T15:27:29;8.60;99.90
21271;DHT22;10795;50.796;3.860;2023-02-28T15:30:05;8.30;99.90
21271;DHT22;10795;50.796;3.860;2023-02-28T15:32:34;8.30;99.90
21271;DHT22;10795;50.796;3.860;2023-02-28T15:35:19;8.40;99.90
21271;DHT22;10795;50.796;3.860;2023-02-28T15:37:55;8.20;99.90
21271;DHT22;10795;50.796;3.860;2023-02-28T15:40:30;8.20;99.90
21271;DHT22;10795;50.796;3.860;2023-02-28T15:43:16;8.10;99.90
21271;DHT22;10795;50.796;3.860;2023-02-28T15:48:44;8.10;99.90
21271;DHT22;10795;50.796;3.860;2023-02-28T15:51:24;8.00;99.90
21271;DHT22;10795;50.796;3.860;2023-02-28T15:53:56;8.00;99.90
21271;DHT22;10795;50.796;3.860;2023-02-28T15:56:26;7.80;99.90
21271;DHT22;10795;50.796;3.860;2023-02-28T15:59:05;7.90;99.90
21271;DHT22;10795;50.796;3.860;2023-02-28T16:01:38;7.80;99.90
21271;DHT22;10795;50.796;3.860;2023-02-28T16:04:20;7.80;99.90
21271;DHT22;10795;50.796;3.860;2023-02-28T16:06:53;7.80;99.90
21271;DHT22;10795;50.796;3.860;2023-02-28T16:09:25;7.80;99.90
21271;DHT22;10795;50.796;3.860;2023-02-28T16:11:54;7.70;99.90
21271;DHT22;10795;50.796;3.860;2023-02-28T16:14:25;7.60;99.90
21271;DHT22;10795;50.796;3.860;2023-02-28T16:17:16;7.40;99.90
21271;DHT22;10795;50.796;3.860;2023-02-28T16:19:45;7.40;99.90
21271;DHT22;10795;50.796;3.860;2023-02-28T16:22:11;7.30;99.90
21271;DHT22;10795;50.796;3.860;2023-02-28T16:24:36;7.30;99.90
21271;DHT22;10795;50.796;3.860;2023-02-28T16:27:04;7.30;99.90
21271;DHT22;10795;50.796;3.860;2023-02-28T16:29:33;7.20;99.90
21271;DHT22;10795;50.796;3.860;2023-02-28T16:32:01;7.30;99.90
21271;DHT22;10795;50.796;3.860;2023-02-28T16:34:29;7.20;99.90
21271;DHT22;10795;50.796;3.860;2023-02-28T16:36:55;7.30;99.90
21271;DHT22;10795;50.796;3.860;2023-02-28T16:39:21;7.20;99.90
21271;DHT22;10795;50.796;3.860;2023-02-28T16:41:48;7.30;99.90
21271;DHT22;10795;50.796;3.860;2023-02-28T16:44:28;7.20;99.90
21271;DHT22;10795;50.796;3.860;2023-02-28T16:46:54;7.00;99.90
21271;DHT22;10795;50.796;3.860;2023-02-28T16:49:20;7.10;99.90
21271;DHT22;10795;50.796;3.860;2023-02-28T16:51:46;7.00;99.90
21271;DHT22;10795;50.796;3.860;2023-02-28T16:54:15;7.10;99.90
21271;DHT22;10795;50.796;3.860;2023-02-28T16:56:45;7.10;99.90
21271;DHT22;10795;50.796;3.860;2023-02-28T16:59:12;7.00;99.90
21271;DHT22;10795;50.796;3.860;2023-02-28T17:01:38;7.00;99.90
21271;DHT22;10795;50.796;3.860;2023-02-28T17:04:04;7.00;99.90
21271;DHT22;10795;50.796;3.860;2023-02-28T17:06:31;6.90;99.90
21271;DHT22;10795;50.796;3.860;2023-02-28T17:08:59;6.90;99.90
21271;DHT22;10795;50.796;3.860;2023-02-28T17:11:25;6.80;99.90
21271;DHT22;10795;50.796;3.860;2023-02-28T17:13:51;6.80;99.90
21271;DHT22;10795;50.796;3.860;2023-02-28T17:16:31;6.80;99.90
21271;DHT22;10795;50.796;3.860;2023-02-28T17:19:03;6.70;99.90
21271;DHT22;10795;50.796;3.860;2023-02-28T17:21:30;6.70;99.90
21271;DHT22;10795;50.796;3.860;2023-02-28T17:23:56;6.70;99.90
21271;DHT22;10795;50.796;3.860;2023-02-28T17:26:23;6.60;99.90
21271;DHT22;10795;50.796;3.860;2023-02-28T17:28:54;6.40;99.90
21271;DHT22;10795;50.796;3.860;2023-02-28T17:31:22;6.50;99.90
21271;DHT22;10795;50.796;3.860;2023-02-28T17:33:47;6.40;99.90
21271;DHT22;10795;50.796;3.860;2023-02-28T17:36:21;6.40;99.90
21271;DHT22;10795;50.796;3.860;2023-02-28T17:38:48;6.40;99.90
21271;DHT22;10795;50.796;3.860;2023-02-28T17:41:14;6.30;99.90
21271;DHT22;10795;50.796;3.860;2023-02-28T17:43:40;6.30;99.90
21271;DHT22;10795;50.796;3.860;2023-02-28T17:46:18;6.40;99.90
21271;DHT22;10795;50.796;3.860;2023-02-28T17:48:49;6.40;99.90
21271;DHT22;10795;50.796;3.860;2023-02-28T17:51:16;6.30;99.90
21271;DHT22;10795;50.796;3.860;2023-02-28T17:53:43;6.30;99.90
21271;DHT22;10795;50.796;3.860;2023-02-28T17:56:16;6.30;99.90
21271;DHT22;10795;50.796;3.860;2023-02-28T17:58:45;6.40;99.90
21271;DHT22;10795;50.796;3.860;2023-02-28T18:01:11;6.40;99.90
21271;DHT22;10795;50.796;3.860;2023-02-28T18:03:38;6.30;99.90
21271;DHT22;10795;50.796;3.860;2023-02-28T18:06:04;6.40;99.90
21271;DHT22;10795;50.796;3.860;2023-02-28T18:08:30;6.30;99.90
21271;DHT22;10795;50.796;3.860;2023-02-28T18:10:59;6.20;99.90
21271;DHT22;10795;50.796;3.860;2023-02-28T18:13:25;6.30;99.90
21271;DHT22;10795;50.796;3.860;2023-02-28T18:15:53;6.10;99.90
21271;DHT22;10795;50.796;3.860;2023-02-28T18:18:19;6.20;99.90
21271;DHT22;10795;50.796;3.860;2023-02-28T18:20:45;6.20;99.90
21271;DHT22;10795;50.796;3.860;2023-02-28T18:23:13;6.10;99.90
21271;DHT22;10795;50.796;3.860;2023-02-28T18:25:45;5.90;99.90
21271;DHT22;10795;50.796;3.860;2023-02-28T18:28:52;5.30;99.90
21271;DHT22;10795;50.796;3.860;2023-02-28T18:31:19;5.20;99.90
21271;DHT22;10795;50.796;3.860;2023-02-28T18:33:49;5.10;99.90
21271;DHT22;10795;50.796;3.860;2023-02-28T18:36:16;5.50;99.90
21271;DHT22;10795;50.796;3.860;2023-02-28T18:38:42;5.70;99.90
21271;DHT22;10795;50.796;3.860;2023-02-28T18:41:19;5.80;99.90
21271;DHT22;10795;50.796;3.860;2023-02-28T18:43:48;5.20;99.90
21271;DHT22;10795;50.796;3.860;2023-02-28T18:46:16;4.30;99.90
21271;DHT22;10795;50.796;3.860;2023-02-28T18:48:42;3.70;99.90
21271;DHT22;10795;50.796;3.860;2023-02-28T18:51:16;3.80;99.90
21271;DHT22;10795;50.796;3.860;2023-02-28T18:53:45;4.00;99.90
21271;DHT22;10795;50.796;3.860;2023-02-28T18:56:14;4.10;99.90
21271;DHT22;10795;50.796;3.860;2023-02-28T18:58:40;4.40;99.90
21271;DHT22;10795;50.796;3.860;2023-02-28T19:01:17;4.50;99.90
21271;DHT22;10795;50.796;3.860;2023-02-28T19:03:46;4.80;99.90
21271;DHT22;10795;50.796;3.860;2023-02-28T19:06:15;4.20;99.90
21271;DHT22;10795;50.796;3.860;2023-02-28T19:08:41;3.40;99.90
21271;DHT22;10795;50.796;3.860;2023-02-28T19:11:16;3.10;99.90
21271;DHT22;10795;50.796;3.860;2023-02-28T19:13:42;2.90;99.90
21271;DHT22;10795;50.796;3.860;2023-02-28T19:16:10;2.80;99.90
21271;DHT22;10795;50.796;3.860;2023-02-28T19:18:37;3.10;99.90
21271;DHT22;10795;50.796;3.860;2023-02-28T19:21:05;3.80;99.90
21271;DHT22;10795;50.796;3.860;2023-02-28T19:23:32;4.30;99.90
21271;DHT22;10795;50.796;3.860;2023-02-28T19:25:58;4.00;99.90
21271;DHT22;10795;50.796;3.860;2023-02-28T19:28:27;4.10;99.90
21271;DHT22;10795;50.796;3.860;2023-02-28T19:30:55;4.30;99.90
21271;DHT22;10795;50.796;3.860;2023-02-28T19:33:20;3.80;99.90
21271;DHT22;10795;50.796;3.860;2023-02-28T19:35:46;3.40;99.90
21271;DHT22;10795;50.796;3.860;2023-02-28T19:38:13;3.20;99.90
21271;DHT22;10795;50.796;3.860;2023-02-28T19:40:42;3.40;99.90
21271;DHT22;10795;50.796;3.860;2023-02-28T19:43:08;3.80;99.90
21271;DHT22;10795;50.796;3.860;2023-02-28T19:45:36;4.20;99.90
21271;DHT22;10795;50.796;3.860;2023-02-28T19:48:05;4.50;99.90
21271;DHT22;10795;50.796;3.860;2023-02-28T19:50:34;4.70;99.90
21271;DHT22;10795;50.796;3.860;2023-02-28T19:53:02;4.30;99.90
21271;DHT22;10795;50.796;3.860;2023-02-28T19:55:28;4.00;99.90
21271;DHT22;10795;50.796;3.860;2023-02-28T19:57:56;3.60;99.90
21271;DHT22;10795;50.796;3.860;2023-02-28T20:00:22;3.30;99.90
21271;DHT22;10795;50.796;3.860;2023-02-28T20:02:48;2.90;99.90